Time;durP1;ratioP1;P1;durP2;ratioP2;P2;SDS_P1;SDS_P2;PMS_P1;PMS_P2;Temp;Humidity;BMP_temperature;BMP_pressure;BME280_temperature;BME280_humidity;BME280_pressure;Samples;Min_cycle;Max_cycle;Signal;HPM_P1;HPM_P2
2022/05/09 00:02:08;;;;;;;0.00;0.00;;;7.50;99.90;;;;;;5113821;28;20108;-79
2022/05/09 00:04:34;;;;;;;0.00;0.00;;;7.50;99.90;;;;;;5113442;28;20083;-79
2022/05/09 00:07:00;;;;;;;0.10;0.10;;;7.50;99.90;;;;;;5096436;28;20094;-79
2022/05/09 00:09:26;;;;;;;0.10;0.10;;;7.40;99.90;;;;;;5113329;28;20051;-79
2022/05/09 00:11:52;;;;;;;0.00;0.00;;;7.40;99.90;;;;;;5113576;28;20040;-79
2022/05/09 00:14:18;;;;;;;0.00;0.00;;;7.30;99.90;;;;;;5113840;28;20040;-79
2022/05/09 00:16:44;;;;;;;0.08;0.00;;;7.30;99.90;;;;;;5113103;28;20047;-78
2022/05/09 00:19:11;;;;;;;0.10;0.10;;;7.30;99.90;;;;;;5113336;28;20050;-79
2022/05/09 00:21:40;;;;;;;0.00;0.00;;;7.20;99.90;;;;;;5096271;28;20055;-78
2022/05/09 00:24:08;;;;;;;0.00;0.00;;;7.30;99.90;;;;;;5113593;28;20383;-79
2022/05/09 00:26:34;;;;;;;1.35;0.38;;;7.20;99.90;;;;;;5113265;28;20051;-79
2022/05/09 00:29:02;;;;;;;0.00;0.00;;;7.20;99.90;;;;;;5096464;28;20395;-79
2022/05/09 00:31:27;;;;;;;0.00;0.00;;;7.20;99.90;;;;;;5113278;28;20047;-79
2022/05/09 00:33:53;;;;;;;0.00;0.00;;;7.10;99.90;;;;;;5113135;28;20042;-78
2022/05/09 00:36:19;;;;;;;0.75;0.10;;;7.00;99.90;;;;;;5113034;28;20061;-78
2022/05/09 00:38:45;;;;;;;0.00;0.00;;;7.00;99.90;;;;;;5113437;28;20040;-79
2022/05/09 00:43:56;;;;;;;;;;;7.00;99.90;;;;;;5113298;28;20483;-79
2022/05/09 00:46:23;;;;;;;0.10;0.00;;;6.90;99.90;;;;;;5095394;28;19919;-79
2022/05/09 00:48:49;;;;;;;0.00;0.00;;;7.00;99.90;;;;;;5096266;28;20134;-78
2022/05/09 00:51:24;;;;;;;0.60;0.00;;;7.00;99.90;;;;;;5099399;28;20039;-79
2022/05/09 00:53:51;;;;;;;0.00;0.00;;;6.90;99.90;;;;;;5117482;28;20101;-79
2022/05/09 00:56:25;;;;;;;0.65;0.32;;;6.90;99.90;;;;;;5100202;28;20467;-79
2022/05/09 00:59:07;;;;;;;0.00;0.00;;;6.90;99.90;;;;;;5100115;28;20059;-78
2022/05/09 01:01:33;;;;;;;0.20;0.10;;;6.90;99.90;;;;;;5100382;28;20035;-79
2022/05/09 01:04:08;;;;;;;0.00;0.00;;;6.80;99.90;;;;;;5117238;28;20108;-79
2022/05/09 01:06:34;;;;;;;0.00;0.00;;;6.80;99.90;;;;;;5117104;28;20083;-78
2022/05/09 01:09:00;;;;;;;0.00;0.00;;;6.80;99.90;;;;;;5116601;28;20482;-79
2022/05/09 01:11:28;;;;;;;0.00;0.00;;;6.70;99.90;;;;;;5117427;28;20093;-79
2022/05/09 01:14:01;;;;;;;0.45;0.45;;;6.60;99.90;;;;;;5100369;28;20060;-79
2022/05/09 01:16:27;;;;;;;0.00;0.00;;;6.60;99.90;;;;;;5100186;28;20048;-79
2022/05/09 01:18:56;;;;;;;0.10;0.00;;;6.60;99.90;;;;;;5116840;28;20402;-79
2022/05/09 01:21:30;;;;;;;0.10;0.00;;;6.60;99.90;;;;;;5099740;28;20495;-79
2022/05/09 01:23:56;;;;;;;0.00;0.00;;;6.60;99.90;;;;;;5116971;28;20442;-79
2022/05/09 01:26:22;;;;;;;0.00;0.00;;;6.60;99.90;;;;;;5099442;28;20077;-79
2022/05/09 01:28:48;;;;;;;0.25;0.10;;;6.60;99.90;;;;;;5117067;28;20083;-79
2022/05/09 01:31:17;;;;;;;0.00;0.00;;;6.60;99.90;;;;;;5116753;28;20478;-79
2022/05/09 01:33:46;;;;;;;0.00;0.00;;;6.50;99.90;;;;;;5099824;28;20060;-79
2022/05/09 01:36:17;;;;;;;0.03;0.00;;;6.50;99.90;;;;;;5116411;28;20482;-79
2022/05/09 01:38:51;;;;;;;0.55;0.52;;;6.50;99.90;;;;;;5116412;28;20055;-79
2022/05/09 01:41:17;;;;;;;2.65;0.17;;;6.50;99.90;;;;;;5116437;28;20042;-79
2022/05/09 01:43:51;;;;;;;0.00;0.00;;;6.50;99.90;;;;;;5116671;28;20051;-79
2022/05/09 01:46:20;;;;;;;0.52;0.52;;;6.50;99.90;;;;;;5099009;28;20499;-79
2022/05/09 01:51:31;;;;;;;0.00;0.00;;;6.50;99.90;;;;;;5116426;28;20050;-79
2022/05/09 01:53:57;;;;;;;0.00;0.00;;;6.50;99.90;;;;;;5099180;28;20054;-79
2022/05/09 01:56:29;;;;;;;0.00;0.00;;;6.60;99.90;;;;;;5116151;28;20449;-79
2022/05/09 01:58:55;;;;;;;0.17;0.17;;;6.60;99.90;;;;;;5099108;28;20094;-78
2022/05/09 02:01:25;;;;;;;0.00;0.00;;;6.50;99.90;;;;;;5098013;28;20500;-79
2022/05/09 02:03:52;;;;;;;0.03;0.00;;;6.50;99.90;;;;;;5116761;28;20525;-79
2022/05/09 02:06:20;;;;;;;18.67;1.75;;;6.50;99.90;;;;;;5115667;28;20096;-79
2022/05/09 02:08:46;;;;;;;0.00;0.00;;;6.50;99.90;;;;;;5098822;28;20441;-79
2022/05/09 02:11:11;;;;;;;0.43;0.10;;;6.50;99.90;;;;;;5115730;28;20100;-79
2022/05/09 02:13:37;;;;;;;0.20;0.20;;;6.40;99.90;;;;;;5115801;28;20043;-79
2022/05/09 02:16:03;;;;;;;0.00;0.00;;;6.40;99.90;;;;;;5098688;28;20104;-79
2022/05/09 02:18:31;;;;;;;0.43;0.32;;;6.40;99.90;;;;;;5098658;28;20047;-79
2022/05/09 02:20:57;;;;;;;0.10;0.08;;;6.30;99.90;;;;;;5115599;28;20040;-79
2022/05/09 02:23:22;;;;;;;0.00;0.00;;;6.30;99.90;;;;;;5116110;28;20040;-79
2022/05/09 02:25:48;;;;;;;0.50;0.30;;;6.40;99.90;;;;;;5115541;28;20047;-79
2022/05/09 02:28:14;;;;;;;0.00;0.00;;;6.30;99.90;;;;;;5115353;28;20079;-79
2022/05/09 02:30:41;;;;;;;0.22;0.00;;;6.30;99.90;;;;;;5098123;28;20047;-79
2022/05/09 02:33:09;;;;;;;0.00;0.00;;;6.30;99.90;;;;;;5097254;28;20156;-79
2022/05/09 02:35:37;;;;;;;0.00;0.00;;;6.20;99.90;;;;;;5114588;28;20040;-79
2022/05/09 02:38:04;;;;;;;0.35;0.35;;;6.10;99.90;;;;;;5098233;28;20104;-79
2022/05/09 02:40:30;;;;;;;0.00;0.00;;;6.10;99.90;;;;;;5115528;28;20043;-79
2022/05/09 02:42:58;;;;;;;0.00;0.00;;;6.10;99.90;;;;;;5115282;28;20179;-79
2022/05/09 02:45:25;;;;;;;0.00;0.00;;;6.00;99.90;;;;;;5098568;28;20044;-79
2022/05/09 02:47:52;;;;;;;0.10;0.10;;;6.00;99.90;;;;;;5115377;28;20065;-79
2022/05/09 02:50:21;;;;;;;1.08;0.00;;;6.00;99.90;;;;;;5115522;28;20043;-79
2022/05/09 02:52:51;;;;;;;0.00;0.00;;;6.00;99.90;;;;;;5098064;28;20483;-79
2022/05/09 02:55:18;;;;;;;0.00;0.00;;;6.00;99.90;;;;;;5115023;28;20052;-79
2022/05/09 02:57:44;;;;;;;0.00;0.00;;;5.90;99.90;;;;;;5098045;28;20060;-79
2022/05/09 03:00:19;;;;;;;0.57;0.20;;;5.90;99.90;;;;;;5114687;28;20040;-79
2022/05/09 03:04:38;;;;;;;0.00;0.00;;;5.90;99.90;;;;;;5098133;28;20051;-79
2022/05/09 03:05:32;;;;;;;0.00;0.00;;;5.90;99.90;;;;;;5114145;28;20548;-79
2022/05/09 03:07:58;;;;;;;0.20;0.20;;;6.00;99.90;;;;;;5097445;28;20090;-79
2022/05/09 03:10:24;;;;;;;0.00;0.00;;;6.00;99.90;;;;;;5114486;28;20466;-79
2022/05/09 03:12:50;;;;;;;0.00;0.00;;;6.00;99.90;;;;;;5114353;28;20043;-80
2022/05/09 03:15:17;;;;;;;2.03;0.73;;;6.00;99.90;;;;;;5097017;28;20051;-79
2022/05/09 03:17:42;;;;;;;0.20;0.10;;;6.00;99.90;;;;;;5114758;28;20044;-79
2022/05/09 03:20:09;;;;;;;0.52;0.32;;;6.00;99.90;;;;;;5114655;28;20051;-79
2022/05/09 03:22:35;;;;;;;0.00;0.00;;;5.90;99.90;;;;;;5114377;28;20042;-79
2022/05/09 03:25:01;;;;;;;0.00;0.00;;;6.00;99.90;;;;;;5097876;28;20047;-79
2022/05/09 03:27:27;;;;;;;0.10;0.10;;;5.90;99.90;;;;;;5114533;28;20047;-79
2022/05/09 03:29:53;;;;;;;0.00;0.00;;;5.80;99.90;;;;;;5114557;28;20390;-79
2022/05/09 03:32:18;;;;;;;0.00;0.00;;;5.70;99.90;;;;;;5097231;28;20100;-79
2022/05/09 03:34:46;;;;;;;0.00;0.00;;;5.70;99.90;;;;;;5114597;28;20043;-79
2022/05/09 03:37:12;;;;;;;0.00;0.00;;;5.70;99.90;;;;;;5114107;28;20093;-79
2022/05/09 03:39:37;;;;;;;0.10;0.03;;;5.70;99.90;;;;;;5114115;28;20047;-79
2022/05/09 03:42:06;;;;;;;0.00;0.00;;;5.70;99.90;;;;;;5114084;28;20040;-79
2022/05/09 03:44:32;;;;;;;0.08;0.08;;;5.70;99.90;;;;;;5113960;28;20109;-79
2022/05/09 03:46:58;;;;;;;0.00;0.00;;;5.70;99.90;;;;;;5113936;28;20044;-79
2022/05/09 03:49:24;;;;;;;0.85;0.85;;;5.70;99.90;;;;;;5113918;28;20047;-79
2022/05/09 03:51:49;;;;;;;0.10;0.10;;;5.70;99.90;;;;;;5097406;28;20059;-79
2022/05/09 03:54:15;;;;;;;0.08;0.08;;;5.70;99.90;;;;;;5096793;28;20056;-79
2022/05/09 03:56:41;;;;;;;0.75;0.20;;;5.60;99.90;;;;;;5096832;28;20046;-79
2022/05/09 03:59:08;;;;;;;0.00;0.00;;;5.60;99.90;;;;;;5113841;28;20048;-79
2022/05/09 04:01:34;;;;;;;0.00;0.00;;;5.60;99.90;;;;;;5113798;28;20048;-79
2022/05/09 04:04:00;;;;;;;0.15;0.15;;;5.60;99.90;;;;;;5113697;28;20088;-79
2022/05/09 04:06:26;;;;;;;1.08;0.35;;;5.60;99.90;;;;;;5113872;28;20176;-79
2022/05/09 04:08:52;;;;;;;0.00;0.00;;;5.60;99.90;;;;;;5113369;28;20554;-79
2022/05/09 04:11:17;;;;;;;0.20;0.00;;;5.60;99.90;;;;;;5114021;28;20047;-79
2022/05/09 04:13:43;;;;;;;3.20;0.52;;;5.60;99.90;;;;;;5113608;28;20035;-79
2022/05/09 04:18:56;;;;;;;0.00;0.00;;;5.60;99.90;;;;;;5113463;28;20066;-79
2022/05/09 04:21:22;;;;;;;0.00;0.00;;;5.60;99.90;;;;;;5113300;28;20446;-79
2022/05/09 04:23:49;;;;;;;0.17;0.00;;;5.60;99.90;;;;;;5114126;28;20127;-79
2022/05/09 04:26:16;;;;;;;0.00;0.00;;;5.70;99.90;;;;;;5095830;28;20096;-79
2022/05/09 04:28:42;;;;;;;0.00;0.00;;;5.70;99.90;;;;;;5113390;28;20084;-79
2022/05/09 04:31:07;;;;;;;0.10;0.10;;;5.80;99.90;;;;;;5096301;28;20138;-79
2022/05/09 04:33:33;;;;;;;0.00;0.00;;;5.80;99.90;;;;;;5113296;28;20418;-79
2022/05/09 04:35:59;;;;;;;0.00;0.00;;;5.90;99.90;;;;;;5113036;28;20058;-79
2022/05/09 04:38:26;;;;;;;1.35;0.45;;;5.80;99.90;;;;;;5112864;28;20043;-79
2022/05/09 04:40:54;;;;;;;0.00;0.00;;;5.80;99.90;;;;;;5113517;28;20120;-79
2022/05/09 04:43:22;;;;;;;0.00;0.00;;;5.80;99.90;;;;;;5112642;28;20043;-80
2022/05/09 04:45:48;;;;;;;0.10;0.10;;;5.90;99.90;;;;;;5112754;28;20039;-80
2022/05/09 04:48:15;;;;;;;0.00;0.00;;;5.90;99.90;;;;;;5112794;28;20122;-79
2022/05/09 04:50:41;;;;;;;1.00;0.60;;;6.00;99.90;;;;;;5113296;28;20051;-79
2022/05/09 04:53:07;;;;;;;0.00;0.00;;;6.00;99.90;;;;;;5113084;28;20051;-79
2022/05/09 04:55:33;;;;;;;0.10;0.00;;;6.10;99.90;;;;;;5113492;28;20043;-79
2022/05/09 04:57:59;;;;;;;0.00;0.00;;;6.20;99.90;;;;;;5095933;28;20091;-79
2022/05/09 05:00:26;;;;;;;2.13;0.45;;;6.30;99.90;;;;;;5112987;28;20043;-79
2022/05/09 05:02:54;;;;;;;0.00;0.00;;;6.30;99.90;;;;;;5113201;28;20050;-79
2022/05/09 05:05:20;;;;;;;0.00;0.00;;;6.40;99.90;;;;;;5095832;28;20477;-79
2022/05/09 05:07:46;;;;;;;0.00;0.00;;;6.40;99.90;;;;;;5112779;28;20054;-79
2022/05/09 05:10:13;;;;;;;0.00;0.00;;;6.40;99.90;;;;;;5112919;28;20082;-79
2022/05/09 05:12:39;;;;;;;0.00;0.00;;;6.50;99.90;;;;;;5113006;28;20083;-79
2022/05/09 05:15:05;;;;;;;0.15;0.08;;;6.60;99.90;;;;;;5112757;28;20044;-79
2022/05/09 05:17:31;;;;;;;0.00;0.00;;;6.60;99.90;;;;;;5095591;28;20066;-80
2022/05/09 05:19:56;;;;;;;0.00;0.00;;;6.70;99.90;;;;;;5112950;28;20433;-80
2022/05/09 05:22:22;;;;;;;0.03;0.03;;;6.80;99.90;;;;;;5113116;28;20046;-80
2022/05/09 05:24:52;;;;;;;0.00;0.00;;;6.80;99.90;;;;;;5112738;28;20043;-79
2022/05/09 05:27:21;;;;;;;0.10;0.00;;;6.90;99.90;;;;;;5112802;28;20043;-79
2022/05/09 05:29:47;;;;;;;0.00;0.00;;;7.00;99.90;;;;;;5096067;28;20043;-79
2022/05/09 05:32:22;;;;;;;0.32;0.32;;;7.10;99.90;;;;;;5095775;28;20471;-79
2022/05/09 05:34:49;;;;;;;0.08;0.08;;;7.10;99.90;;;;;;5113180;28;20436;-79
2022/05/09 05:37:16;;;;;;;0.00;0.00;;;7.20;99.90;;;;;;5114052;28;20079;-79
2022/05/09 05:39:43;;;;;;;0.22;0.10;;;7.30;99.90;;;;;;5099211;28;20204;-79
2022/05/09 05:42:10;;;;;;;0.22;0.00;;;7.30;99.90;;;;;;5116459;28;20478;-79
2022/05/09 05:44:37;;;;;;;0.30;0.30;;;7.40;99.90;;;;;;5099448;28;20056;-79
2022/05/09 05:47:07;;;;;;;1.90;0.45;;;7.50;99.90;;;;;;5099206;28;20517;-79
2022/05/09 05:49:34;;;;;;;0.00;0.00;;;7.70;99.90;;;;;;5099479;28;20396;-79
2022/05/09 05:52:03;;;;;;;0.00;0.00;;;7.80;99.90;;;;;;5099492;28;20051;-79
2022/05/09 05:54:34;;;;;;;0.00;0.00;;;8.10;99.90;;;;;;5116387;28;20052;-79
2022/05/09 05:57:01;;;;;;;0.15;0.15;;;8.20;99.90;;;;;;5116514;28;20043;-79
2022/05/09 05:59:27;;;;;;;1.30;1.20;;;8.30;99.90;;;;;;5116155;28;20047;-79
2022/05/09 06:01:54;;;;;;;0.00;0.00;;;8.30;99.90;;;;;;5116270;28;20082;-83
2022/05/09 06:04:20;;;;;;;0.20;0.20;;;8.40;99.90;;;;;;5099457;28;20077;-79
2022/05/09 06:06:46;;;;;;;0.00;0.00;;;8.40;99.90;;;;;;5115747;28;20043;-79
2022/05/09 06:09:12;;;;;;;0.00;0.00;;;8.50;99.90;;;;;;5098224;28;20051;-78
2022/05/09 06:11:40;;;;;;;0.00;0.00;;;8.50;99.90;;;;;;5115618;28;20051;-79
2022/05/09 06:14:07;;;;;;;0.77;0.05;;;8.60;99.90;;;;;;5116254;28;20040;-79
2022/05/09 06:16:33;;;;;;;2.35;0.55;;;8.70;99.90;;;;;;5098863;28;20043;-78
2022/05/09 06:19:00;;;;;;;0.08;0.08;;;8.80;99.90;;;;;;5115826;28;20047;-79
2022/05/09 06:21:28;;;;;;;0.00;0.00;;;9.00;99.90;;;;;;5098588;28;20491;-80
2022/05/09 06:23:54;;;;;;;0.00;0.00;;;9.10;99.90;;;;;;5115798;28;20082;-79
2022/05/09 06:26:22;;;;;;;0.00;0.00;;;9.30;99.90;;;;;;5115290;28;20094;-79
2022/05/09 06:28:48;;;;;;;0.00;0.00;;;9.40;99.90;;;;;;5098562;28;20087;-79
2022/05/09 06:31:14;;;;;;;0.15;0.15;;;9.50;99.90;;;;;;5097893;28;20097;-79
2022/05/09 06:33:39;;;;;;;0.00;0.00;;;9.60;99.90;;;;;;5115407;28;20450;-79
2022/05/09 06:36:07;;;;;;;0.00;0.00;;;9.80;99.90;;;;;;5115376;28;20097;-79
2022/05/09 06:38:34;;;;;;;0.00;0.00;;;9.90;99.90;;;;;;5114994;28;20050;-79
2022/05/09 06:41:02;;;;;;;0.22;0.22;;;10.00;99.90;;;;;;5098628;28;20075;-79
2022/05/09 06:43:30;;;;;;;0.00;0.00;;;10.10;99.90;;;;;;5098232;28;20059;-79
2022/05/09 06:45:56;;;;;;;0.43;0.10;;;10.20;99.90;;;;;;5114976;28;20039;-79
2022/05/09 06:48:22;;;;;;;0.00;0.00;;;10.40;99.90;;;;;;5114890;28;20051;-79
2022/05/09 06:50:48;;;;;;;0.00;0.00;;;10.60;99.90;;;;;;5097830;28;20492;-79
2022/05/09 06:53:14;;;;;;;0.00;0.00;;;10.90;99.90;;;;;;5115288;28;20043;-79
2022/05/09 06:55:39;;;;;;;0.30;0.28;;;11.20;99.90;;;;;;5098611;28;20040;-78
2022/05/09 06:58:07;;;;;;;0.00;0.00;;;11.50;99.90;;;;;;5114987;28;20088;-78
2022/05/09 07:00:33;;;;;;;0.05;0.00;;;11.80;99.90;;;;;;5097893;28;20054;-79
2022/05/09 07:02:59;;;;;;;0.55;0.52;;;12.30;99.90;;;;;;5098421;28;20059;-78
2022/05/09 07:05:25;;;;;;;0.10;0.10;;;12.80;99.90;;;;;;5114427;28;20135;-79
2022/05/09 07:07:51;;;;;;;0.00;0.00;;;12.90;99.90;;;;;;5114953;28;20360;-79
2022/05/09 07:10:18;;;;;;;0.22;0.22;;;13.30;99.90;;;;;;5114716;28;20052;-79
2022/05/09 07:12:47;;;;;;;0.00;0.00;;;13.50;99.90;;;;;;5114861;28;20429;-79
2022/05/09 07:15:18;;;;;;;0.00;0.00;;;13.90;99.90;;;;;;5115171;28;20080;-79
2022/05/09 07:17:45;;;;;;;0.10;0.00;;;14.20;99.90;;;;;;5114665;28;20096;-79
2022/05/09 07:20:12;;;;;;;0.00;0.00;;;14.40;99.90;;;;;;5114154;28;20055;-79
2022/05/09 07:22:38;;;;;;;0.00;0.00;;;14.60;99.90;;;;;;5114496;28;20399;-78
2022/05/09 07:25:05;;;;;;;0.60;0.45;;;14.70;99.90;;;;;;5096989;28;20051;-79
2022/05/09 07:27:30;;;;;;;0.00;0.00;;;14.70;99.90;;;;;;5113739;28;20035;-79
2022/05/09 07:29:56;;;;;;;0.00;0.00;;;14.80;99.90;;;;;;5114325;28;20039;-79
2022/05/09 07:32:22;;;;;;;1.52;0.57;;;14.90;99.90;;;;;;5114175;28;20042;-79
2022/05/09 07:34:49;;;;;;;0.00;0.00;;;15.00;99.90;;;;;;5114007;28;20047;-79
2022/05/09 07:37:18;;;;;;;1.60;0.10;;;15.20;99.90;;;;;;5114353;28;20580;-79
2022/05/09 07:39:44;;;;;;;0.00;0.00;;;15.30;99.90;;;;;;5113831;28;20051;-79
2022/05/09 07:42:11;;;;;;;0.00;0.00;;;15.30;99.90;;;;;;5114036;28;20039;-79
2022/05/09 07:44:37;;;;;;;1.63;0.68;;;15.50;99.90;;;;;;5113913;28;20051;-79
2022/05/09 07:47:03;;;;;;;0.43;0.38;;;15.60;99.90;;;;;;5096279;28;20066;-79
2022/05/09 07:49:28;;;;;;;0.00;0.00;;;15.60;99.90;;;;;;5097583;28;20108;-79
2022/05/09 07:51:54;;;;;;;0.10;0.00;;;15.80;99.90;;;;;;5113774;28;20086;-79
2022/05/09 07:54:19;;;;;;;6.38;0.80;;;15.80;99.90;;;;;;5113695;28;20075;-79
2022/05/09 07:56:46;;;;;;;0.75;0.40;;;15.90;99.90;;;;;;5113947;28;20047;-80
2022/05/09 07:59:12;;;;;;;0.05;0.05;;;15.90;99.90;;;;;;5113139;28;20040;-79
2022/05/09 08:01:38;;;;;;;0.10;0.10;;;16.00;99.90;;;;;;5113470;28;20050;-79
2022/05/09 08:04:04;;;;;;;0.20;0.20;;;16.20;99.40;;;;;;5113257;28;20047;-80
2022/05/09 08:06:30;;;;;;;0.20;0.10;;;16.20;98.40;;;;;;5096579;28;20402;-79
2022/05/09 08:08:56;;;;;;;0.22;0.20;;;16.20;97.60;;;;;;5113314;28;20063;-79
2022/05/09 08:11:22;;;;;;;0.10;0.00;;;16.20;98.10;;;;;;5096929;28;20040;-79
2022/05/09 08:13:48;;;;;;;0.00;0.00;;;16.40;98.30;;;;;;5113494;28;20039;-79
2022/05/09 08:16:14;;;;;;;0.00;0.00;;;16.50;98.20;;;;;;5096383;28;20140;-79
2022/05/09 08:18:40;;;;;;;0.00;0.00;;;16.70;97.90;;;;;;5114128;28;20494;-79
2022/05/09 08:21:06;;;;;;;0.00;0.00;;;16.90;96.20;;;;;;5113110;28;20466;-80
2022/05/09 08:23:32;;;;;;;0.00;0.00;;;16.90;95.70;;;;;;5096830;28;20147;-79
2022/05/09 08:26:02;;;;;;;0.00;0.00;;;17.00;94.20;;;;;;5113175;28;20375;-80
2022/05/09 08:28:29;;;;;;;0.35;0.10;;;17.10;94.80;;;;;;5113569;28;20391;-80
2022/05/09 08:30:55;;;;;;;0.20;0.20;;;17.00;93.60;;;;;;5113267;28;20046;-80
2022/05/09 08:33:23;;;;;;;0.00;0.00;;;17.20;94.00;;;;;;5113287;28;20047;-80
2022/05/09 08:35:51;;;;;;;0.00;0.00;;;17.40;95.30;;;;;;5113065;28;20587;-80
2022/05/09 08:38:19;;;;;;;0.00;0.00;;;17.50;94.80;;;;;;5113190;28;20092;-80
2022/05/09 08:41:08;;;;;;;0.00;0.00;;;17.60;93.00;;;;;;5096383;28;20502;-80
2022/05/09 08:43:58;;;;;;;0.13;0.10;;;17.90;93.00;;;;;;5113048;28;20044;-80
2022/05/09 08:46:45;;;;;;;0.00;0.00;;;18.10;92.00;;;;;;5095671;28;20510;-80
2022/05/09 08:49:30;;;;;;;0.00;0.00;;;18.20;91.40;;;;;;5113465;28;20079;-80
2022/05/09 08:51:56;;;;;;;;;;;18.20;90.00;;;;;;5097216;28;20090;-80
2022/05/09 08:54:24;;;;;;;0.00;0.00;;;18.40;90.70;;;;;;5113120;28;19951;-80
2022/05/09 08:56:57;;;;;;;0.00;0.00;;;18.60;90.50;;;;;;5095910;28;20052;-80
2022/05/09 08:59:36;;;;;;;0.00;0.00;;;18.80;85.70;;;;;;5096285;28;20105;-80
2022/05/09 09:02:29;;;;;;;0.00;0.00;;;19.00;87.30;;;;;;5112924;28;20476;-80
2022/05/09 09:04:56;;;;;;;0.00;0.00;;;18.90;85.70;;;;;;5112834;28;20134;-80
2022/05/09 09:07:32;;;;;;;0.75;0.57;;;19.00;86.70;;;;;;5095677;28;20083;-80
2022/05/09 09:10:03;;;;;;;0.35;0.10;;;19.00;84.70;;;;;;5111633;28;20060;-80
2022/05/09 09:12:45;;;;;;;1.10;0.38;;;18.90;84.60;;;;;;5112253;28;20445;-80
2022/05/09 09:15:38;;;;;;;0.65;0.30;;;18.90;80.20;;;;;;5100468;28;20048;-80
2022/05/09 09:18:19;;;;;;;0.00;0.00;;;19.00;81.20;;;;;;5115884;28;20043;-80
2022/05/09 09:21:16;;;;;;;0.00;0.00;;;19.20;85.90;;;;;;5114642;28;20134;-80
2022/05/09 09:23:54;;;;;;;0.00;0.00;;;19.30;82.70;;;;;;5097622;28;20087;-80
2022/05/09 09:26:33;;;;;;;0.00;0.00;;;19.50;80.20;;;;;;5113651;28;20108;-80
2022/05/09 09:29:40;;;;;;;0.20;0.10;;;19.60;78.40;;;;;;5099365;28;20056;-79
2022/05/09 09:32:15;;;;;;;0.00;0.00;;;19.80;80.50;;;;;;5115946;28;20051;-79
2022/05/09 09:34:59;;;;;;;0.00;0.00;;;19.90;81.10;;;;;;5116602;28;20058;-79
2022/05/09 09:38:01;;;;;;;0.47;0.10;;;19.90;75.90;;;;;;5116615;28;20063;-79
2022/05/09 09:40:27;;;;;;;0.00;0.00;;;20.10;77.10;;;;;;5100088;28;20054;-79
2022/05/09 09:42:57;;;;;;;1.08;0.25;;;20.20;75.90;;;;;;5116260;28;20039;-79
2022/05/09 09:45:33;;;;;;;0.00;0.00;;;20.30;77.00;;;;;;5116198;28;20040;-80
2022/05/09 09:48:20;;;;;;;0.28;0.00;;;20.50;75.60;;;;;;5116234;28;20562;-79
2022/05/09 09:51:00;;;;;;;0.00;0.00;;;20.60;71.30;;;;;;5099750;28;20051;-79
2022/05/09 09:53:37;;;;;;;0.00;0.00;;;20.80;72.50;;;;;;5116573;28;20050;-79
2022/05/09 09:56:09;;;;;;;0.00;0.00;;;21.00;72.90;;;;;;5099237;28;20395;-79
2022/05/09 09:58:38;;;;;;;0.30;0.20;;;21.00;71.70;;;;;;5099545;28;20056;-79
2022/05/09 10:01:21;;;;;;;0.00;0.00;;;21.20;67.30;;;;;;5116733;28;20047;-79
2022/05/09 10:04:03;;;;;;;0.00;0.00;;;21.30;68.40;;;;;;5099462;28;20391;-79
2022/05/09 10:06:30;;;;;;;0.00;0.00;;;21.50;73.10;;;;;;5116065;28;20138;-79
2022/05/09 10:09:01;;;;;;;0.20;0.15;;;21.50;67.30;;;;;;5115587;28;20058;-79
2022/05/09 10:11:29;;;;;;;0.55;0.13;;;21.60;68.10;;;;;;5099110;28;20047;-79
2022/05/09 10:14:00;;;;;;;0.10;0.00;;;21.80;67.70;;;;;;5116097;28;20188;-78
2022/05/09 10:16:33;;;;;;;0.45;0.22;;;22.00;66.50;;;;;;5116193;28;20100;-78
2022/05/09 10:19:02;;;;;;;0.00;0.00;;;22.10;64.20;;;;;;5115786;28;20044;-79
2022/05/09 10:24:47;;;;;;;0.13;0.05;;;22.10;64.00;;;;;;5115481;28;20499;-78
2022/05/09 10:27:28;;;;;;;0.00;0.00;;;22.10;62.80;;;;;;5098741;28;20096;-78
2022/05/09 10:30:22;;;;;;;0.00;0.00;;;22.30;63.60;;;;;;5116717;28;20480;-79
2022/05/09 10:32:54;;;;;;;0.00;0.00;;;22.40;62.90;;;;;;5057526;28;20045;-78
2022/05/09 10:35:31;;;;;;;0.13;0.13;;;22.40;61.20;;;;;;5040798;28;20045;-79
2022/05/09 10:38:10;;;;;;;0.85;0.35;;;22.60;59.70;;;;;;5039890;28;20057;-79
2022/05/09 10:40:44;;;;;;;0.00;0.00;;;22.80;64.80;;;;;;5041249;28;20106;-79
2022/05/09 10:43:33;;;;;;;0.13;0.13;;;23.00;62.10;;;;;;5041272;28;20403;-79
2022/05/09 10:46:04;;;;;;;0.00;0.00;;;23.20;64.00;;;;;;5058165;28;20045;-79
2022/05/09 10:48:59;;;;;;;0.00;0.00;;;23.30;61.40;;;;;;5059979;28;20044;-79
2022/05/09 10:51:43;;;;;;;0.00;0.00;;;23.30;59.70;;;;;;5055876;28;20496;-79
2022/05/09 10:54:40;;;;;;;0.00;0.00;;;23.30;58.40;;;;;;5057659;28;20392;-79
2022/05/09 10:57:24;;;;;;;0.00;0.00;;;23.50;63.40;;;;;;5058200;28;20071;-79
2022/05/09 10:59:51;;;;;;;0.00;0.00;;;23.70;64.70;;;;;;5058129;28;20067;-80
2022/05/09 11:02:26;;;;;;;0.63;0.30;;;23.80;57.00;;;;;;5057135;28;20047;-79
2022/05/09 11:04:52;;;;;;;0.00;0.00;;;23.60;57.20;;;;;;5040360;28;20044;-79
2022/05/09 11:07:30;;;;;;;0.00;0.00;;;23.60;56.70;;;;;;5057164;28;20090;-79
2022/05/09 11:10:04;;;;;;;0.00;0.00;;;23.60;54.80;;;;;;5088921;28;20079;-79
2022/05/09 11:12:39;;;;;;;0.75;0.10;;;23.70;58.80;;;;;;5114913;28;20130;-79
2022/05/09 11:15:14;;;;;;;;;;;23.80;57.70;;;;;;5098238;28;20051;-79
2022/05/09 11:17:49;;;;;;;;;;;23.90;57.70;;;;;;5115122;28;19919;-79
2022/05/09 11:21:12;;;;;;;0.00;0.00;;;24.10;59.70;;;;;;5115197;28;19958;-78
2022/05/09 11:24:09;;;;;;;0.00;0.00;;;24.10;58.10;;;;;;5056492;28;20048;-79
2022/05/09 11:27:03;;;;;;;0.00;0.00;;;24.20;57.90;;;;;;5055697;28;20053;-79
2022/05/09 11:29:50;;;;;;;0.05;0.00;;;24.20;57.70;;;;;;5056277;28;20158;-79
2022/05/09 11:32:19;;;;;;;0.00;0.00;;;24.40;58.00;;;;;;5055987;28;20487;-80
2022/05/09 11:35:09;;;;;;;0.10;0.00;;;24.40;57.70;;;;;;5054971;28;20056;-79
2022/05/09 11:38:06;;;;;;;0.10;0.10;;;24.60;57.10;;;;;;5055857;28;20638;-79
2022/05/09 11:40:37;;;;;;;0.10;0.10;;;24.80;57.80;;;;;;5055629;28;20052;-79
2022/05/09 11:43:35;;;;;;;0.00;0.00;;;24.70;54.90;;;;;;5039769;28;20048;-79
2022/05/09 11:46:12;;;;;;;0.00;0.00;;;24.60;57.40;;;;;;5039144;28;20049;-79
2022/05/09 11:49:05;;;;;;;0.30;0.30;;;24.50;55.00;;;;;;5055535;28;20101;-79
2022/05/09 11:51:46;;;;;;;0.00;0.00;;;24.40;54.60;;;;;;5055606;28;20044;-79
2022/05/09 11:54:32;;;;;;;0.98;0.30;;;24.20;54.30;;;;;;5077844;28;20047;-79
2022/05/09 11:57:20;;;;;;;0.08;0.05;;;24.10;54.10;;;;;;5113860;28;20133;-78
2022/05/09 12:00:10;;;;;;;0.00;0.00;;;24.50;57.30;;;;;;5114061;28;20047;-78
2022/05/09 12:02:51;;;;;;;0.00;0.00;;;24.70;55.30;;;;;;5114082;28;20043;-79
2022/05/09 12:05:26;;;;;;;0.05;0.00;;;24.80;53.80;;;;;;5113707;28;20042;-78
2022/05/09 12:08:02;;;;;;;0.05;0.00;;;24.80;54.40;;;;;;5113784;28;20063;-79
2022/05/09 12:10:29;;;;;;;0.70;0.17;;;24.80;55.40;;;;;;5114508;28;20054;-78
2022/05/09 12:13:14;;;;;;;0.52;0.30;;;25.00;56.70;;;;;;5113598;28;20085;-79
2022/05/09 12:15:50;;;;;;;1.13;0.13;;;25.10;58.30;;;;;;5096736;28;20391;-79
2022/05/09 12:18:29;;;;;;;0.00;0.00;;;25.10;56.00;;;;;;5113340;28;20043;-79
2022/05/09 12:20:55;;;;;;;0.00;0.00;;;25.30;53.70;;;;;;5097013;28;20048;-80
2022/05/09 12:23:39;;;;;;;0.00;0.00;;;25.50;57.90;;;;;;5113879;28;20047;-80
2022/05/09 12:26:05;;;;;;;0.00;0.00;;;25.50;57.90;;;;;;5113296;28;20147;-80
2022/05/09 12:28:34;;;;;;;0.00;0.00;;;25.50;54.60;;;;;;5096420;28;20039;-79
2022/05/09 12:31:32;;;;;;;0.00;0.00;;;25.60;53.30;;;;;;5113154;28;20052;-79
2022/05/09 12:33:58;;;;;;;0.00;0.00;;;25.70;55.50;;;;;;5113619;28;20039;-79
2022/05/09 12:36:35;;;;;;;0.73;0.15;;;25.70;55.60;;;;;;5113407;28;20510;-79
2022/05/09 12:39:13;;;;;;;0.00;0.00;;;25.80;55.80;;;;;;5096660;28;20078;-79
2022/05/09 12:41:55;;;;;;;0.38;0.32;;;25.90;56.00;;;;;;5113504;28;20084;-80
2022/05/09 12:44:22;;;;;;;0.00;0.00;;;26.00;54.20;;;;;;5112931;28;20411;-80
2022/05/09 12:46:53;;;;;;;0.00;0.00;;;26.00;51.90;;;;;;5095660;28;20058;-79
2022/05/09 12:49:28;;;;;;;0.00;0.00;;;25.80;53.50;;;;;;5096412;28;20095;-79
2022/05/09 12:51:57;;;;;;;0.00;0.00;;;25.80;54.60;;;;;;5113334;28;20494;-79
2022/05/09 12:54:26;;;;;;;0.10;0.05;;;25.60;53.90;;;;;;5113352;28;20052;-79
2022/05/09 12:56:59;;;;;;;1.10;0.32;;;25.70;54.10;;;;;;5096448;28;20105;-79
2022/05/09 12:59:43;;;;;;;0.00;0.00;;;25.70;52.40;;;;;;5113323;28;20398;-79
2022/05/09 13:02:08;;;;;;;0.47;0.43;;;25.80;53.20;;;;;;5113518;28;20134;-79
2022/05/09 13:04:39;;;;;;;0.00;0.00;;;25.80;51.40;;;;;;5112999;28;20079;-79
2022/05/09 13:07:07;;;;;;;0.00;0.00;;;25.70;52.80;;;;;;5113130;28;20106;-79
2022/05/09 13:09:50;;;;;;;0.00;0.00;;;25.70;53.40;;;;;;5112835;28;20063;-79
2022/05/09 13:12:24;;;;;;;0.05;0.00;;;25.80;53.80;;;;;;5096259;28;20063;-79
2022/05/09 13:14:56;;;;;;;1.65;0.60;;;25.80;53.70;;;;;;5096264;28;20465;-79
2022/05/09 13:17:36;;;;;;;0.00;0.00;;;25.80;53.60;;;;;;5112993;28;20122;-79
2022/05/09 13:20:06;;;;;;;4.18;0.00;;;25.90;52.30;;;;;;5095944;28;20048;-79
2022/05/09 13:22:41;;;;;;;0.22;0.05;;;25.70;50.90;;;;;;5112939;28;20408;-79
2022/05/09 13:25:16;;;;;;;0.00;0.00;;;25.80;51.10;;;;;;5113047;28;20051;-79